Time;durP1;ratioP1;P1;durP2;ratioP2;P2;SDS_P1;SDS_P2;PMS_P1;PMS_P2;Temp;Humidity;BMP_temperature;BMP_pressure;BME280_temperature;BME280_humidity;BME280_pressure;Samples;Min_cycle;Max_cycle;Signal;HPM_P1;HPM_P2
2023/08/30 00:01:57;;;;;;;4.67;2.57;;;14.10;99.90;;;;;;5083471;28;20417;-74
2023/08/30 00:04:43;;;;;;;7.40;2.57;;;14.20;99.90;;;;;;5076874;28;20420;-74
2023/08/30 00:07:28;;;;;;;4.53;2.50;;;14.10;99.90;;;;;;5081246;28;21086;-74
2023/08/30 00:10:14;;;;;;;4.90;2.57;;;14.20;99.90;;;;;;5093475;28;20606;-75
2023/08/30 00:13:00;;;;;;;3.53;2.57;;;14.20;99.90;;;;;;5080326;28;20437;-75
2023/08/30 00:15:47;;;;;;;6.27;2.73;;;14.30;99.90;;;;;;5087358;28;21035;-74
2023/08/30 00:18:32;;;;;;;3.20;2.53;;;14.30;99.90;;;;;;5088065;28;20477;-75
2023/08/30 00:21:18;;;;;;;6.70;2.70;;;14.30;99.90;;;;;;5081455;28;20448;-75
2023/08/30 00:24:04;;;;;;;8.57;2.80;;;14.40;99.90;;;;;;5081824;28;20962;-74
2023/08/30 00:26:51;;;;;;;2.33;2.10;;;14.30;99.90;;;;;;5087469;28;20448;-74
2023/08/30 00:29:37;;;;;;;3.67;2.67;;;14.30;99.90;;;;;;5079965;28;20502;-74
2023/08/30 00:32:24;;;;;;;5.30;2.73;;;14.40;99.90;;;;;;5083741;28;20445;-74
2023/08/30 00:35:09;;;;;;;6.97;2.73;;;14.40;99.90;;;;;;5084786;28;20981;-74
2023/08/30 00:37:55;;;;;;;3.90;2.80;;;14.40;99.90;;;;;;5078167;28;20840;-74
2023/08/30 00:40:41;;;;;;;3.03;2.50;;;14.40;99.90;;;;;;5084262;28;20441;-74
2023/08/30 00:43:27;;;;;;;3.70;2.67;;;14.40;99.90;;;;;;5081526;28;20515;-74
2023/08/30 00:46:13;;;;;;;5.50;2.70;;;14.30;99.90;;;;;;5082626;28;20446;-74
2023/08/30 00:49:01;;;;;;;3.00;2.37;;;14.30;99.90;;;;;;5085241;28;20843;-74
2023/08/30 00:51:47;;;;;;;2.97;2.30;;;14.30;99.90;;;;;;5082100;28;20444;-75
2023/08/30 00:54:33;;;;;;;4.90;2.50;;;14.40;99.90;;;;;;5084458;28;20453;-75
2023/08/30 00:57:18;;;;;;;4.63;2.80;;;14.30;99.90;;;;;;5084339;28;20576;-74
2023/08/30 01:00:07;;;;;;;6.83;2.50;;;14.20;99.90;;;;;;5083923;28;20438;-74
2023/08/30 01:02:52;;;;;;;3.73;2.43;;;14.10;99.90;;;;;;5087012;28;20423;-74
2023/08/30 01:05:40;;;;;;;4.47;3.60;;;14.00;99.90;;;;;;5086748;28;20503;-75
2023/08/30 01:08:25;;;;;;;4.60;2.50;;;14.00;99.90;;;;;;5089545;28;20818;-73
2023/08/30 01:11:17;;;;;;;3.80;3.07;;;14.00;99.90;;;;;;5088122;28;20465;-75
2023/08/30 01:14:08;;;;;;;5.50;2.90;;;14.10;99.90;;;;;;5089708;28;20436;-74
2023/08/30 01:16:56;;;;;;;4.47;2.63;;;14.20;99.90;;;;;;5087332;28;20958;-74
2023/08/30 01:19:51;;;;;;;3.37;2.83;;;14.20;99.90;;;;;;5088008;28;20442;-74
2023/08/30 01:22:46;;;;;;;6.97;2.90;;;14.30;99.90;;;;;;5088671;28;20452;-74
2023/08/30 01:25:46;;;;;;;3.60;2.70;;;14.30;99.90;;;;;;5090233;28;20571;-75
2023/08/30 01:28:36;;;;;;;6.90;3.07;;;14.40;99.90;;;;;;5088270;28;21001;-75
2023/08/30 01:31:24;;;;;;;3.60;2.70;;;14.30;99.90;;;;;;5087547;28;20539;-74
2023/08/30 01:34:10;;;;;;;3.70;2.53;;;14.40;99.90;;;;;;5087356;28;20549;-74
2023/08/30 01:36:55;;;;;;;3.50;2.43;;;14.40;99.90;;;;;;5089746;28;20953;-74
2023/08/30 01:39:43;;;;;;;5.37;2.60;;;14.40;99.90;;;;;;5087061;28;20924;-75
2023/08/30 01:42:28;;;;;;;5.27;2.73;;;14.40;99.90;;;;;;5080851;28;20568;-74
2023/08/30 01:45:17;;;;;;;4.37;2.60;;;14.40;99.90;;;;;;5089387;28;20596;-75
2023/08/30 01:48:04;;;;;;;3.00;2.30;;;14.30;99.90;;;;;;5085926;28;20440;-74
2023/08/30 01:50:51;;;;;;;7.40;4.23;;;14.40;99.90;;;;;;5087416;28;20455;-75
2023/08/30 01:53:37;;;;;;;10.80;2.50;;;14.40;99.90;;;;;;5085136;28;20831;-74
2023/08/30 01:56:23;;;;;;;4.10;2.60;;;14.30;99.90;;;;;;5085612;28;20453;-74
2023/08/30 01:59:08;;;;;;;6.73;2.90;;;14.30;99.90;;;;;;5082262;28;21020;-74
2023/08/30 02:01:56;;;;;;;3.27;2.40;;;14.30;99.90;;;;;;5088095;28;20408;-74
2023/08/30 02:04:41;;;;;;;4.30;2.97;;;14.30;99.90;;;;;;5085684;28;20535;-74
2023/08/30 02:07:46;;;;;;;4.47;2.70;;;14.40;99.90;;;;;;5085109;28;20468;-75
2023/08/30 02:10:36;;;;;;;4.03;2.97;;;14.30;99.90;;;;;;5088221;28;21079;-74
2023/08/30 02:13:27;;;;;;;3.60;3.00;;;14.40;99.90;;;;;;5089510;28;20929;-75
2023/08/30 02:16:14;;;;;;;3.43;2.50;;;14.40;99.90;;;;;;5088722;28;20424;-75
2023/08/30 02:19:02;;;;;;;3.23;2.30;;;14.40;99.90;;;;;;5087017;28;20439;-75
2023/08/30 02:21:48;;;;;;;4.17;2.50;;;14.40;99.90;;;;;;5087367;28;20416;-75
2023/08/30 02:24:33;;;;;;;5.43;2.80;;;14.30;99.90;;;;;;5088315;28;20495;-74
2023/08/30 02:27:19;;;;;;;5.00;2.77;;;14.30;99.90;;;;;;5084053;28;20461;-75
2023/08/30 02:30:06;;;;;;;5.50;3.00;;;14.40;99.90;;;;;;5087905;28;20479;-74
2023/08/30 02:32:52;;;;;;;5.67;2.90;;;14.40;99.90;;;;;;5087429;28;20437;-75
2023/08/30 02:35:39;;;;;;;4.53;3.87;;;14.30;99.90;;;;;;5085982;28;20490;-74
2023/08/30 02:38:24;;;;;;;3.53;2.63;;;14.30;99.90;;;;;;5084870;28;20821;-74
2023/08/30 02:41:10;;;;;;;4.27;3.43;;;14.30;99.90;;;;;;5088383;28;20433;-74
2023/08/30 02:43:55;;;;;;;4.23;2.87;;;14.20;99.90;;;;;;5085735;28;20438;-75
2023/08/30 02:46:41;;;;;;;3.70;2.33;;;14.30;99.90;;;;;;5085233;28;20413;-74
2023/08/30 02:49:26;;;;;;;3.20;1.90;;;14.30;99.90;;;;;;5085875;28;20503;-75
2023/08/30 02:52:13;;;;;;;4.17;2.63;;;14.40;99.90;;;;;;5082078;28;20409;-74
2023/08/30 02:54:59;;;;;;;4.07;2.70;;;14.40;99.90;;;;;;5088225;28;21779;-74
2023/08/30 02:57:46;;;;;;;4.87;3.00;;;14.40;99.90;;;;;;5087670;28;20579;-74
2023/08/30 03:00:31;;;;;;;4.23;2.57;;;14.40;99.90;;;;;;5087727;28;20538;-74
2023/08/30 03:03:17;;;;;;;5.43;2.70;;;14.40;99.90;;;;;;5088460;28;20483;-74
2023/08/30 03:06:03;;;;;;;3.23;2.53;;;14.30;99.90;;;;;;5088731;28;20445;-74
2023/08/30 03:08:50;;;;;;;5.10;3.07;;;14.30;99.90;;;;;;5085879;28;20451;-74
2023/08/30 03:11:36;;;;;;;5.53;2.50;;;14.20;99.90;;;;;;5088654;28;20493;-74
2023/08/30 03:14:21;;;;;;;3.10;2.40;;;14.20;99.90;;;;;;5086001;28;20415;-74
2023/08/30 03:17:07;;;;;;;3.83;3.03;;;14.20;99.90;;;;;;5084878;28;20457;-74
2023/08/30 03:19:54;;;;;;;3.63;2.53;;;14.30;99.90;;;;;;5084864;28;20404;-75
2023/08/30 03:22:39;;;;;;;6.30;3.33;;;14.30;99.90;;;;;;5082244;28;20962;-74
2023/08/30 03:25:29;;;;;;;4.00;2.77;;;14.30;99.90;;;;;;5086072;28;20461;-75
2023/08/30 03:28:15;;;;;;;4.00;2.70;;;14.30;99.90;;;;;;5086433;28;20436;-74
2023/08/30 03:31:01;;;;;;;4.70;2.60;;;14.30;99.90;;;;;;5086738;28;20461;-74
2023/08/30 03:33:47;;;;;;;5.53;2.57;;;14.30;99.90;;;;;;5084228;28;20446;-74
2023/08/30 03:36:33;;;;;;;3.67;2.27;;;14.40;99.90;;;;;;5083773;28;20433;-74
2023/08/30 03:39:18;;;;;;;7.27;2.73;;;14.40;99.90;;;;;;5087182;28;20416;-74
2023/08/30 03:42:06;;;;;;;7.17;2.90;;;14.40;99.90;;;;;;5086263;28;20928;-74
2023/08/30 03:44:51;;;;;;;7.70;3.40;;;14.30;99.90;;;;;;5090327;28;20802;-74
2023/08/30 03:47:38;;;;;;;3.80;2.60;;;14.20;99.90;;;;;;5084842;28;20914;-75
2023/08/30 03:50:23;;;;;;;3.60;3.13;;;14.30;99.90;;;;;;5084698;28;20439;-75
2023/08/30 03:53:09;;;;;;;5.23;2.70;;;14.30;99.90;;;;;;5089881;28;20527;-74
2023/08/30 03:55:55;;;;;;;13.67;3.40;;;14.30;99.90;;;;;;5089647;28;20464;-74
2023/08/30 03:58:42;;;;;;;6.43;2.80;;;14.40;99.90;;;;;;5084394;28;21001;-75
2023/08/30 04:01:27;;;;;;;7.53;3.07;;;14.40;99.90;;;;;;5084072;28;20412;-74
2023/08/30 04:04:13;;;;;;;8.67;2.97;;;14.40;99.90;;;;;;5089932;28;20959;-74
2023/08/30 04:06:59;;;;;;;3.93;3.20;;;14.50;99.90;;;;;;5086508;28;20422;-74
2023/08/30 04:09:44;;;;;;;3.67;3.27;;;14.50;99.90;;;;;;5087805;28;20462;-75
2023/08/30 04:12:30;;;;;;;5.43;3.17;;;14.50;99.90;;;;;;5081818;28;20962;-74
2023/08/30 04:15:17;;;;;;;6.57;3.10;;;14.50;99.90;;;;;;5085064;28;20442;-74
2023/08/30 04:18:04;;;;;;;3.83;2.90;;;14.50;99.90;;;;;;5087073;28;20669;-74
2023/08/30 04:20:49;;;;;;;3.67;2.93;;;14.50;99.90;;;;;;5082298;28;22309;-75
2023/08/30 04:23:35;;;;;;;3.40;2.73;;;14.40;99.90;;;;;;5084744;28;20412;-75
2023/08/30 04:26:21;;;;;;;4.50;3.33;;;14.30;99.90;;;;;;5084896;28;20437;-74
2023/08/30 04:29:06;;;;;;;6.90;3.50;;;14.20;99.90;;;;;;5085843;28;20461;-74
2023/08/30 04:31:54;;;;;;;3.37;2.80;;;14.20;99.90;;;;;;5083687;28;20730;-75
2023/08/30 04:34:39;;;;;;;4.10;3.23;;;14.20;99.90;;;;;;5084053;28;20551;-75
2023/08/30 04:37:25;;;;;;;4.17;3.00;;;14.30;99.90;;;;;;5079948;28;20446;-74
2023/08/30 04:40:11;;;;;;;11.97;3.30;;;14.30;99.90;;;;;;5083355;28;20416;-74
2023/08/30 04:42:57;;;;;;;3.67;3.07;;;14.30;99.90;;;;;;5088928;28;20494;-74
2023/08/30 04:45:43;;;;;;;4.90;3.67;;;14.30;99.90;;;;;;5087888;28;20420;-74
2023/08/30 04:48:30;;;;;;;5.63;3.43;;;14.30;99.90;;;;;;5090616;28;20461;-74
2023/08/30 04:51:15;;;;;;;6.67;3.07;;;14.30;99.90;;;;;;5088039;28;20509;-74
2023/08/30 04:54:01;;;;;;;4.70;2.50;;;14.30;99.90;;;;;;5090355;28;20442;-74
2023/08/30 04:56:47;;;;;;;6.07;2.97;;;14.30;99.90;;;;;;5090108;28;20818;-74
2023/08/30 04:59:32;;;;;;;4.70;3.33;;;14.30;99.90;;;;;;5087057;28;20795;-74
2023/08/30 05:02:18;;;;;;;3.73;3.23;;;14.30;99.90;;;;;;5083736;28;20418;-75
2023/08/30 05:05:06;;;;;;;7.90;3.60;;;14.30;99.90;;;;;;5088986;28;20437;-74
2023/08/30 05:07:51;;;;;;;9.70;3.20;;;14.30;99.90;;;;;;5090173;28;20472;-74
2023/08/30 05:10:39;;;;;;;6.10;3.60;;;14.30;99.90;;;;;;5086121;28;20592;-74
2023/08/30 05:13:25;;;;;;;7.53;3.70;;;14.30;99.90;;;;;;5088545;28;20434;-74
2023/08/30 05:16:10;;;;;;;4.73;3.33;;;14.30;99.90;;;;;;5091462;28;20571;-75
2023/08/30 05:18:56;;;;;;;3.60;3.30;;;14.40;99.90;;;;;;5088251;28;20542;-75
2023/08/30 05:21:43;;;;;;;9.60;3.03;;;14.40;99.90;;;;;;5084221;28;20483;-75
2023/08/30 05:24:29;;;;;;;9.63;3.60;;;14.40;99.90;;;;;;5089142;28;20580;-74
2023/08/30 05:27:14;;;;;;;4.67;3.40;;;14.50;99.90;;;;;;5089671;28;20870;-75
2023/08/30 05:30:00;;;;;;;8.10;3.20;;;14.50;99.90;;;;;;5091214;28;20444;-75
2023/08/30 05:32:45;;;;;;;5.00;2.70;;;14.60;99.90;;;;;;5084450;28;20469;-74
2023/08/30 05:35:31;;;;;;;5.00;3.30;;;14.60;99.90;;;;;;5087025;28;20420;-74
2023/08/30 05:38:18;;;;;;;6.40;3.67;;;14.70;99.90;;;;;;5089025;28;20547;-75
2023/08/30 05:41:04;;;;;;;5.10;3.57;;;14.80;99.90;;;;;;5089223;28;20430;-74
2023/08/30 05:43:49;;;;;;;7.03;3.83;;;14.80;99.90;;;;;;5090545;28;20932;-75
2023/08/30 05:46:35;;;;;;;7.33;2.87;;;14.80;99.90;;;;;;5090735;28;20428;-74
2023/08/30 05:49:21;;;;;;;5.40;3.37;;;14.80;99.90;;;;;;5085856;28;20420;-74
2023/08/30 05:52:07;;;;;;;6.40;3.37;;;14.80;99.90;;;;;;5088827;28;20468;-74
2023/08/30 05:54:54;;;;;;;5.93;3.20;;;14.90;99.90;;;;;;5089591;28;20575;-75
2023/08/30 05:57:39;;;;;;;7.43;3.60;;;14.90;99.90;;;;;;5091501;28;20436;-74
2023/08/30 06:00:25;;;;;;;7.50;3.50;;;14.90;99.90;;;;;;5088631;28;20897;-75
2023/08/30 06:03:11;;;;;;;8.10;3.50;;;14.90;99.90;;;;;;5085636;28;20461;-75
2023/08/30 06:05:57;;;;;;;4.23;3.47;;;14.90;99.90;;;;;;5087300;28;20516;-75
2023/08/30 06:08:42;;;;;;;5.97;3.50;;;14.90;99.90;;;;;;5087887;28;20443;-75
2023/08/30 06:11:29;;;;;;;4.03;3.63;;;14.90;99.90;;;;;;5091251;28;20440;-75
2023/08/30 06:14:15;;;;;;;4.63;3.80;;;14.90;99.90;;;;;;5084446;28;20415;-74
2023/08/30 06:17:01;;;;;;;8.87;4.07;;;14.90;99.90;;;;;;5090412;28;20887;-75
2023/08/30 06:19:46;;;;;;;4.07;3.40;;;15.00;99.90;;;;;;5087737;28;20834;-74
2023/08/30 06:22:32;;;;;;;4.10;3.30;;;15.00;99.90;;;;;;5084032;28;20417;-74
2023/08/30 06:25:18;;;;;;;4.53;3.47;;;15.10;99.90;;;;;;5087195;28;20491;-74
2023/08/30 06:28:06;;;;;;;3.80;3.37;;;15.00;99.90;;;;;;5088882;28;20866;-74
2023/08/30 06:30:52;;;;;;;6.43;3.80;;;15.00;99.90;;;;;;5084029;28;20527;-74
2023/08/30 06:33:38;;;;;;;5.50;4.37;;;14.90;99.90;;;;;;5088203;28;20995;-75
2023/08/30 06:36:24;;;;;;;5.23;4.10;;;14.90;99.90;;;;;;5081816;28;20437;-74
2023/08/30 06:39:10;;;;;;;9.80;4.57;;;14.90;99.90;;;;;;5083501;28;20546;-75
2023/08/30 06:41:55;;;;;;;5.83;3.80;;;14.90;99.90;;;;;;5084583;28;20461;-74
2023/08/30 06:44:42;;;;;;;5.57;4.20;;;15.00;99.90;;;;;;5085389;28;20503;-74
2023/08/30 06:47:28;;;;;;;5.77;4.47;;;15.20;99.90;;;;;;5086402;28;20465;-74
2023/08/30 06:50:13;;;;;;;8.33;4.87;;;15.30;99.90;;;;;;5086224;28;20439;-75
2023/08/30 06:52:59;;;;;;;7.73;4.60;;;15.40;99.90;;;;;;5086837;28;20470;-75
2023/08/30 06:55:45;;;;;;;5.07;4.30;;;15.50;99.90;;;;;;5088970;28;20420;-74
2023/08/30 06:58:31;;;;;;;4.50;3.87;;;15.60;99.90;;;;;;5087874;28;20544;-74
2023/08/30 07:01:17;;;;;;;5.20;4.50;;;15.70;99.90;;;;;;5088722;28;20438;-74
2023/08/30 07:04:03;;;;;;;6.03;5.00;;;15.80;99.90;;;;;;5090001;28;20538;-74
2023/08/30 07:06:49;;;;;;;8.13;5.43;;;15.80;99.90;;;;;;5087075;28;20413;-74
2023/08/30 07:09:34;;;;;;;8.80;4.70;;;15.80;99.90;;;;;;5087921;28;20413;-74
2023/08/30 07:12:20;;;;;;;5.77;4.60;;;15.90;99.90;;;;;;5085470;28;20515;-74
2023/08/30 07:15:07;;;;;;;5.20;4.10;;;16.00;99.90;;;;;;5086772;28;21478;-74
2023/08/30 07:17:53;;;;;;;7.70;5.27;;;16.00;99.90;;;;;;5085963;28;20812;-74
2023/08/30 07:20:40;;;;;;;6.10;5.13;;;16.10;99.90;;;;;;5086411;28;20976;-74
2023/08/30 07:23:26;;;;;;;6.63;5.60;;;16.10;99.90;;;;;;5086456;28;20759;-75
2023/08/30 07:26:11;;;;;;;10.43;8.13;;;16.30;99.90;;;;;;5084495;28;20524;-74
2023/08/30 07:28:57;;;;;;;11.67;8.43;;;16.30;99.90;;;;;;5087927;28;20467;-75
2023/08/30 07:31:43;;;;;;;8.70;7.40;;;16.20;99.90;;;;;;5084042;28;20448;-74
2023/08/30 07:34:30;;;;;;;17.63;7.30;;;16.20;99.90;;;;;;5083700;28;20544;-74
2023/08/30 07:37:20;;;;;;;11.80;7.37;;;16.40;99.90;;;;;;5083174;28;20943;-74
2023/08/30 07:40:07;;;;;;;10.07;8.30;;;16.40;99.90;;;;;;5086380;28;20428;-74
2023/08/30 07:42:53;;;;;;;8.33;7.53;;;16.50;99.90;;;;;;5083498;28;20413;-74
2023/08/30 07:45:39;;;;;;;9.50;8.47;;;16.60;99.90;;;;;;5085801;28;20533;-74
2023/08/30 07:48:24;;;;;;;10.10;8.80;;;16.60;99.90;;;;;;5080403;28;20465;-74
2023/08/30 07:51:11;;;;;;;10.43;8.00;;;16.60;99.90;;;;;;5088143;28;20437;-75
2023/08/30 07:53:57;;;;;;;10.27;9.23;;;16.60;99.90;;;;;;5085528;28;20421;-74
2023/08/30 07:56:43;;;;;;;9.07;7.90;;;16.70;99.90;;;;;;5085501;28;20433;-74
2023/08/30 07:59:28;;;;;;;10.63;8.30;;;16.80;99.90;;;;;;5088037;28;20439;-75
2023/08/30 08:02:14;;;;;;;10.40;7.80;;;16.90;99.90;;;;;;5082879;28;20424;-74
2023/08/30 08:05:00;;;;;;;10.37;7.87;;;17.00;99.90;;;;;;5086045;28;20438;-75
2023/08/30 08:07:51;;;;;;;10.50;8.13;;;17.10;99.90;;;;;;5082371;28;20470;-74
2023/08/30 08:10:36;;;;;;;9.33;8.33;;;17.10;99.90;;;;;;5090397;28;20548;-74
2023/08/30 08:13:22;;;;;;;9.10;6.73;;;17.10;99.90;;;;;;5087147;28;20475;-74
2023/08/30 08:16:08;;;;;;;9.00;7.93;;;17.20;99.90;;;;;;5083094;28;21033;-74
2023/08/30 08:18:53;;;;;;;8.40;6.70;;;17.20;99.90;;;;;;5086202;28;20491;-75
2023/08/30 08:21:39;;;;;;;9.93;8.93;;;17.20;99.90;;;;;;5080121;28;20528;-74
2023/08/30 08:24:26;;;;;;;10.00;8.30;;;17.20;99.90;;;;;;5084441;28;20534;-75
2023/08/30 08:27:12;;;;;;;8.63;7.73;;;17.20;99.90;;;;;;5088248;28;20990;-74
2023/08/30 08:29:57;;;;;;;11.13;8.70;;;17.10;99.90;;;;;;5084779;28;20572;-75
2023/08/30 08:32:43;;;;;;;10.10;9.07;;;17.00;99.90;;;;;;5078787;28;20475;-74
2023/08/30 08:35:29;;;;;;;11.20;8.40;;;17.00;99.90;;;;;;5085796;28;20938;-74
2023/08/30 08:38:15;;;;;;;13.67;10.60;;;17.10;99.90;;;;;;5081582;28;20488;-74
2023/08/30 08:41:06;;;;;;;12.07;10.03;;;17.20;99.90;;;;;;5086984;28;20451;-74
2023/08/30 08:43:51;;;;;;;13.80;8.70;;;17.20;99.90;;;;;;5083936;28;20432;-74
2023/08/30 08:46:38;;;;;;;12.60;8.90;;;17.20;99.90;;;;;;5085188;28;20432;-75
2023/08/30 08:49:28;;;;;;;12.10;10.90;;;17.30;99.90;;;;;;5084556;28;20933;-74
2023/08/30 08:52:14;;;;;;;22.13;10.20;;;17.30;99.90;;;;;;5083728;28;20453;-74
2023/08/30 08:55:00;;;;;;;10.73;9.70;;;17.40;99.90;;;;;;5086901;28;21128;-74
2023/08/30 08:57:49;;;;;;;12.20;10.90;;;17.40;99.90;;;;;;5082535;28;20539;-74
2023/08/30 09:00:35;;;;;;;13.07;11.20;;;17.40;99.90;;;;;;5087208;28;21445;-74
2023/08/30 09:03:22;;;;;;;15.63;10.73;;;17.40;99.90;;;;;;5084209;28;20430;-75
2023/08/30 09:06:08;;;;;;;9.20;8.30;;;17.40;99.90;;;;;;5086907;28;20432;-74
2023/08/30 09:08:54;;;;;;;12.40;9.27;;;17.60;99.90;;;;;;5086959;28;20483;-74
2023/08/30 09:11:39;;;;;;;10.80;9.70;;;17.80;99.90;;;;;;5084000;28;21030;-74
2023/08/30 09:14:27;;;;;;;11.20;9.13;;;17.90;99.90;;;;;;5083406;28;20490;-74
2023/08/30 09:17:12;;;;;;;11.87;10.23;;;17.90;99.90;;;;;;5077165;28;20435;-74
2023/08/30 09:20:09;;;;;;;11.33;8.80;;;18.10;99.90;;;;;;5085995;28;20836;-74
2023/08/30 09:22:55;;;;;;;9.37;8.33;;;18.10;99.90;;;;;;5084626;28;20541;-75
2023/08/30 09:25:41;;;;;;;10.97;9.60;;;18.20;99.90;;;;;;5083340;28;20419;-75
2023/08/30 09:28:27;;;;;;;10.40;9.30;;;18.10;99.90;;;;;;5082771;28;20454;-75
2023/08/30 09:31:20;;;;;;;9.50;8.60;;;18.20;99.90;;;;;;5088206;28;20422;-75
2023/08/30 09:34:06;;;;;;;15.03;9.83;;;18.20;99.90;;;;;;5091459;28;20429;-74
2023/08/30 09:36:53;;;;;;;10.97;8.47;;;18.30;99.90;;;;;;5088740;28;20492;-74
2023/08/30 09:39:48;;;;;;;9.33;7.73;;;18.40;99.90;;;;;;5089415;28;20439;-74
2023/08/30 09:42:34;;;;;;;7.73;6.90;;;18.40;99.90;;;;;;5089862;28;20837;-75
2023/08/30 09:45:20;;;;;;;8.80;7.80;;;18.60;99.90;;;;;;5090665;28;20415;-76
2023/08/30 09:48:09;;;;;;;9.07;7.30;;;18.60;99.90;;;;;;5090739;28;21148;-75
2023/08/30 09:50:55;;;;;;;9.60;7.10;;;18.70;99.90;;;;;;5090896;28;20786;-75
2023/08/30 09:53:46;;;;;;;7.77;6.47;;;18.70;99.90;;;;;;5088308;28;20494;-75
2023/08/30 09:56:33;;;;;;;10.50;7.23;;;18.70;99.90;;;;;;5090124;28;20422;-75
2023/08/30 09:59:20;;;;;;;8.23;7.00;;;18.70;99.90;;;;;;5087510;28;20445;-76
2023/08/30 10:02:07;;;;;;;8.50;7.43;;;18.80;99.90;;;;;;5089654;28;20965;-75
2023/08/30 10:04:55;;;;;;;10.03;6.60;;;18.90;99.90;;;;;;5085501;28;20544;-75
2023/08/30 10:07:40;;;;;;;14.20;7.40;;;18.90;99.90;;;;;;5087039;28;21004;-76
2023/08/30 10:10:27;;;;;;;8.60;6.97;;;18.90;99.90;;;;;;5083571;28;20482;-74
2023/08/30 10:13:13;;;;;;;7.13;6.43;;;18.80;99.90;;;;;;5085188;28;20468;-75
2023/08/30 10:16:04;;;;;;;9.00;7.73;;;18.80;99.90;;;;;;5087727;28;20535;-75
2023/08/30 10:18:55;;;;;;;7.00;6.20;;;18.60;99.90;;;;;;5083615;28;20506;-75
2023/08/30 10:21:44;;;;;;;8.30;6.90;;;18.70;99.90;;;;;;5088269;28;20460;-75
2023/08/30 10:24:32;;;;;;;8.03;6.20;;;18.70;99.90;;;;;;5090111;28;20790;-75
2023/08/30 10:27:18;;;;;;;8.30;7.40;;;18.80;99.90;;;;;;5088445;28;20864;-75
2023/08/30 10:30:07;;;;;;;8.20;5.50;;;18.80;99.90;;;;;;5088934;28;20442;-75
2023/08/30 10:32:53;;;;;;;9.50;6.60;;;18.90;99.90;;;;;;5090240;28;20449;-75
2023/08/30 10:35:49;;;;;;;8.83;6.30;;;19.00;99.90;;;;;;5088288;28;20432;-75
2023/08/30 10:38:39;;;;;;;7.27;5.57;;;19.10;99.90;;;;;;5087443;28;20805;-75
2023/08/30 10:41:26;;;;;;;7.30;5.40;;;19.10;99.90;;;;;;5089662;28;20423;-75
2023/08/30 10:44:15;;;;;;;8.30;6.30;;;19.20;99.90;;;;;;5090060;28;20434;-75
2023/08/30 10:47:03;;;;;;;11.73;5.77;;;19.20;99.90;;;;;;5088513;28;20967;-75
2023/08/30 10:49:50;;;;;;;9.50;5.03;;;19.40;99.90;;;;;;5089762;28;20576;-75
2023/08/30 10:52:36;;;;;;;7.53;4.57;;;19.50;99.90;;;;;;5087084;28;21034;-75
2023/08/30 10:55:24;;;;;;;6.23;3.70;;;19.70;99.90;;;;;;5086187;28;20906;-75
2023/08/30 10:58:15;;;;;;;13.53;4.30;;;19.90;99.90;;;;;;5089381;28;20427;-75
2023/08/30 11:01:01;;;;;;;6.60;3.97;;;20.00;99.90;;;;;;5088859;28;20535;-75
2023/08/30 11:03:47;;;;;;;5.20;3.93;;;20.10;99.90;;;;;;5088962;28;20440;-75
2023/08/30 11:06:32;;;;;;;6.33;3.90;;;20.20;99.90;;;;;;5090312;28;20578;-75
2023/08/30 11:09:19;;;;;;;5.00;3.70;;;20.30;99.90;;;;;;5090563;28;20448;-75
2023/08/30 11:12:07;;;;;;;5.80;3.50;;;20.50;99.90;;;;;;5087842;28;20449;-75
2023/08/30 11:14:54;;;;;;;6.13;3.43;;;20.70;99.90;;;;;;5089273;28;20969;-75
2023/08/30 11:17:40;;;;;;;7.13;3.30;;;20.60;96.40;;;;;;5087230;28;20565;-75
2023/08/30 11:20:26;;;;;;;8.47;3.70;;;20.50;99.90;;;;;;5078690;28;20961;-75
2023/08/30 11:23:11;;;;;;;5.60;3.10;;;20.70;99.90;;;;;;5083838;28;20968;-76
2023/08/30 11:25:57;;;;;;;4.23;2.70;;;20.80;99.90;;;;;;5082586;28;21726;-76
2023/08/30 11:28:48;;;;;;;8.60;3.10;;;20.70;96.40;;;;;;5081037;28;20517;-76
2023/08/30 11:31:33;;;;;;;2.90;2.43;;;20.80;99.20;;;;;;5084987;28;20570;-76
2023/08/30 11:34:22;;;;;;;4.10;2.60;;;20.80;99.20;;;;;;5081967;28;20571;-76
2023/08/30 11:37:09;;;;;;;5.20;2.97;;;20.80;95.50;;;;;;5081057;28;20525;-77
2023/08/30 11:39:56;;;;;;;4.30;2.90;;;20.60;90.30;;;;;;5082741;28;20503;-77
2023/08/30 11:42:42;;;;;;;4.70;3.30;;;20.60;93.20;;;;;;5081475;28;20449;-77
2023/08/30 11:45:29;;;;;;;6.97;2.37;;;20.60;80.80;;;;;;5085282;28;20436;-77
2023/08/30 11:48:14;;;;;;;5.20;2.30;;;20.50;89.50;;;;;;5085942;28;20465;-77
2023/08/30 11:51:00;;;;;;;3.20;2.50;;;20.60;92.90;;;;;;5087381;28;20417;-76
2023/08/30 11:53:47;;;;;;;3.87;2.87;;;20.70;92.10;;;;;;5089581;28;20481;-77
2023/08/30 11:56:33;;;;;;;3.73;3.00;;;20.80;92.10;;;;;;5089752;28;20445;-77
2023/08/30 11:59:20;;;;;;;3.37;2.40;;;20.60;88.70;;;;;;5080074;28;20585;-77
2023/08/30 12:02:08;;;;;;;5.67;2.80;;;20.50;91.40;;;;;;5084722;28;20457;-77
2023/08/30 12:04:54;;;;;;;4.20;2.50;;;20.50;90.30;;;;;;5081989;28;20571;-77
2023/08/30 12:07:40;;;;;;;3.90;2.80;;;20.50;91.70;;;;;;5083103;28;20479;-77
2023/08/30 12:10:26;;;;;;;3.57;2.80;;;20.70;96.10;;;;;;5083478;28;20418;-77
2023/08/30 12:13:21;;;;;;;3.93;2.93;;;21.00;92.70;;;;;;5082858;28;20493;-77
2023/08/30 12:16:07;;;;;;;5.93;3.40;;;21.30;93.70;;;;;;5082743;28;21151;-77
2023/08/30 12:18:55;;;;;;;9.03;3.50;;;21.40;83.30;;;;;;5078283;28;21028;-77
2023/08/30 12:21:42;;;;;;;4.23;2.80;;;21.50;81.90;;;;;;5082879;28;20423;-77
2023/08/30 12:24:27;;;;;;;5.63;3.20;;;21.40;79.40;;;;;;5083130;28;20425;-77
2023/08/30 12:27:13;;;;;;;4.60;2.77;;;21.50;77.00;;;;;;5083608;28;20447;-77
2023/08/30 12:29:59;;;;;;;5.40;3.37;;;21.60;73.90;;;;;;5078782;28;20444;-77
2023/08/30 12:32:45;;;;;;;3.50;2.70;;;21.50;73.90;;;;;;5080303;28;20456;-77
2023/08/30 12:35:32;;;;;;;3.23;2.70;;;21.70;79.20;;;;;;5080638;28;20468;-78
2023/08/30 12:38:18;;;;;;;3.60;2.93;;;22.00;79.10;;;;;;5083186;28;20551;-77
2023/08/30 12:41:03;;;;;;;4.83;3.27;;;22.20;74.00;;;;;;5074250;28;20556;-77
2023/08/30 12:43:49;;;;;;;5.27;2.97;;;22.00;74.00;;;;;;5080919;28;20438;-77
2023/08/30 12:46:34;;;;;;;4.43;3.50;;;21.80;76.10;;;;;;5081618;28;20415;-77
2023/08/30 12:49:20;;;;;;;5.37;3.60;;;21.60;74.90;;;;;;5077977;28;20424;-76
2023/08/30 12:52:07;;;;;;;3.97;3.30;;;21.50;76.40;;;;;;5081435;28;20441;-77
2023/08/30 12:54:54;;;;;;;5.93;2.63;;;21.60;75.90;;;;;;5077404;28;20454;-77
2023/08/30 12:57:39;;;;;;;5.73;2.60;;;21.90;76.10;;;;;;5082153;28;20465;-77
2023/08/30 13:00:25;;;;;;;6.40;2.60;;;21.80;76.10;;;;;;5079008;28;20438;-77
2023/08/30 13:03:10;;;;;;;8.53;2.67;;;21.40;65.80;;;;;;5082744;28;20448;-77
2023/08/30 13:05:58;;;;;;;4.17;2.97;;;21.20;71.00;;;;;;5083864;28;20441;-77
2023/08/30 13:08:45;;;;;;;6.63;2.90;;;21.10;73.00;;;;;;5087411;28;20499;-77
2023/08/30 13:11:32;;;;;;;3.40;2.73;;;20.80;74.40;;;;;;5086107;28;20526;-77
2023/08/30 13:14:18;;;;;;;4.70;3.00;;;20.60;79.60;;;;;;5086079;28;20472;-76
2023/08/30 13:17:03;;;;;;;8.63;3.30;;;20.30;91.40;;;;;;5087930;28;20436;-77
2023/08/30 13:19:49;;;;;;;9.80;4.27;;;19.90;99.90;;;;;;5085500;28;20493;-77
2023/08/30 13:22:35;;;;;;;17.13;5.70;;;19.50;99.90;;;;;;5085566;28;20770;-77
2023/08/30 13:25:22;;;;;;;15.93;5.70;;;19.10;99.90;;;;;;5082753;28;22553;-77
2023/08/30 13:28:08;;;;;;;11.87;5.60;;;18.70;99.90;;;;;;5085863;28;20521;-77
2023/08/30 13:30:54;;;;;;;10.93;5.40;;;18.50;99.90;;;;;;5086010;28;21049;-77
2023/08/30 13:33:39;;;;;;;12.43;5.73;;;18.40;99.90;;;;;;5088299;28;20542;-77
2023/08/30 13:36:25;;;;;;;7.60;5.20;;;18.40;99.90;;;;;;5084377;28;20451;-77
2023/08/30 13:39:11;;;;;;;8.13;5.57;;;18.20;99.90;;;;;;5084004;28;20448;-77
2023/08/30 13:41:58;;;;;;;8.20;5.33;;;18.10;99.90;;;;;;5084610;28;20848;-77
2023/08/30 13:44:43;;;;;;;9.83;5.30;;;18.10;99.90;;;;;;5084070;28;20552;-77
2023/08/30 13:47:29;;;;;;;11.33;5.57;;;18.10;99.90;;;;;;5086178;28;21088;-77
2023/08/30 13:50:15;;;;;;;5.70;4.80;;;18.20;99.90;;;;;;5085337;28;20448;-77
2023/08/30 13:53:01;;;;;;;8.20;4.57;;;18.30;99.90;;;;;;5081703;28;20442;-77
2023/08/30 13:55:48;;;;;;;7.33;4.80;;;18.50;99.90;;;;;;5082427;28;20778;-77
2023/08/30 13:58:36;;;;;;;7.67;4.67;;;18.60;99.90;;;;;;5084766;28;20460;-77
2023/08/30 14:01:22;;;;;;;13.07;5.37;;;18.80;99.90;;;;;;5088157;28;21106;-76
2023/08/30 14:04:08;;;;;;;8.30;5.00;;;18.80;99.90;;;;;;5086667;28;22841;-77
2023/08/30 14:06:53;;;;;;;7.40;5.47;;;18.70;99.90;;;;;;5085843;28;20463;-77
2023/08/30 14:09:39;;;;;;;22.90;6.20;;;18.80;99.90;;;;;;5082396;28;20560;-76
2023/08/30 14:12:25;;;;;;;8.53;5.93;;;18.80;99.90;;;;;;5085235;28;20453;-76
2023/08/30 14:15:12;;;;;;;6.43;4.70;;;19.00;99.90;;;;;;5085495;28;20558;-77
2023/08/30 14:17:58;;;;;;;10.53;5.07;;;19.50;99.90;;;;;;5087532;28;20456;-76
2023/08/30 14:20:44;;;;;;;6.50;4.90;;;19.90;99.90;;;;;;5081473;28;20444;-76
2023/08/30 14:23:30;;;;;;;4.80;4.10;;;19.90;99.90;;;;;;5078134;28;20437;-77
2023/08/30 14:26:15;;;;;;;6.00;5.03;;;19.90;99.90;;;;;;5074300;28;20453;-76